Time;durP1;ratioP1;P1;durP2;ratioP2;P2;SDS_P1;SDS_P2;PMS_P1;PMS_P2;Temp;Humidity;BMP_temperature;BMP_pressure;BME280_temperature;BME280_humidity;BME280_pressure;Samples;Min_cycle;Max_cycle;Signal;HPM_P1;HPM_P2
2021/08/16 00:00:19;;;;;;;8.73;6.05;;;;;;;25.50;46.83;101565.17;1725992;82;21038;-49
2021/08/16 00:02:46;;;;;;;6.78;5.90;;;;;;;25.49;46.98;101557.30;1716254;82;21506;-47
2021/08/16 00:05:14;;;;;;;23.60;8.70;;;;;;;25.47;47.16;101557.89;1726808;82;21043;-48
2021/08/16 00:07:42;;;;;;;9.70;5.70;;;;;;;25.48;47.25;101556.91;1722557;82;21022;-47
2021/08/16 00:10:11;;;;;;;7.58;5.83;;;;;;;25.46;47.50;101555.70;1721181;82;21054;-49
2021/08/16 00:12:38;;;;;;;7.78;5.30;;;;;;;25.46;47.50;101555.70;1729098;82;21492;-47
2021/08/16 00:15:08;;;;;;;6.20;5.15;;;;;;;25.44;47.18;101552.28;1726312;82;21034;-46
2021/08/16 00:17:34;;;;;;;14.70;6.72;;;;;;;25.40;47.17;101557.43;1726565;82;21602;-48
2021/08/16 00:20:04;;;;;;;8.18;5.62;;;;;;;25.41;47.37;101557.81;1712333;82;21027;-49
2021/08/16 00:22:31;;;;;;;7.30;5.22;;;;;;;25.38;47.43;101550.50;1724686;82;21663;-46
2021/08/16 00:24:58;;;;;;;6.95;5.45;;;;;;;25.38;47.43;101550.50;1729263;82;21035;-48
2021/08/16 00:27:27;;;;;;;8.15;5.55;;;;;;;25.40;47.26;101564.09;1727226;82;21089;-47
2021/08/16 00:29:55;;;;;;;6.22;5.58;;;;;;;25.37;46.94;101561.63;1721714;82;21064;-47
2021/08/16 00:32:24;;;;;;;6.80;6.03;;;;;;;25.37;46.94;101561.63;1730272;82;21069;-47
2021/08/16 00:34:52;;;;;;;8.78;6.20;;;;;;;25.39;46.92;101560.21;1721737;82;21117;-46
2021/08/16 00:37:20;;;;;;;6.35;5.67;;;;;;;25.36;47.09;101555.95;1719041;82;21518;-46
2021/08/16 00:39:47;;;;;;;9.35;6.90;;;;;;;25.38;47.62;101547.84;1721342;82;20998;-48
2021/08/16 00:42:14;;;;;;;8.13;6.00;;;;;;;25.38;47.62;101547.84;1723308;82;21046;-47
2021/08/16 00:44:41;;;;;;;6.70;5.85;;;;;;;25.37;47.70;101542.98;1726189;82;21569;-46
2021/08/16 00:47:07;;;;;;;8.43;6.42;;;;;;;25.33;48.11;101544.16;1721301;82;21004;-48
2021/08/16 00:49:34;;;;;;;8.10;5.47;;;;;;;25.33;48.11;101544.16;1717469;82;21012;-47
2021/08/16 00:52:03;;;;;;;6.12;5.15;;;;;;;25.31;48.24;101548.74;1723152;82;20995;-47
2021/08/16 00:54:30;;;;;;;7.67;4.97;;;;;;;25.35;48.43;101552.89;1703925;82;20994;-47
2021/08/16 00:57:02;;;;;;;6.85;5.75;;;;;;;25.35;48.71;101544.91;1725794;82;21509;-47
2021/08/16 00:59:30;;;;;;;8.80;5.47;;;;;;;25.36;48.73;101551.95;1686671;84;21151;-49
2021/08/16 01:01:56;;;;;;;8.03;5.87;;;;;;;25.36;48.73;101551.95;1688867;84;21059;-46
2021/08/16 01:04:30;;;;;;;8.43;6.17;;;;;;;25.39;48.99;101550.38;1681146;83;21104;-46
2021/08/16 01:06:57;;;;;;;9.90;6.15;;;;;;;25.39;49.11;101543.72;1698590;82;21035;-47
2021/08/16 01:09:23;;;;;;;7.20;5.78;;;;;;;25.42;49.15;101546.22;1696431;83;21027;-49
2021/08/16 01:11:50;;;;;;;5.92;5.22;;;;;;;25.41;49.32;101549.83;1683938;82;21088;-47
2021/08/16 01:14:18;;;;;;;7.75;4.92;;;;;;;25.44;49.50;101546.95;1683256;83;21507;-49
2021/08/16 01:16:47;;;;;;;7.03;5.35;;;;;;;25.44;49.79;101544.77;1687682;84;21110;-47
2021/08/16 01:19:22;;;;;;;7.47;5.40;;;;;;;25.43;50.35;101545.23;1682163;83;21076;-46
2021/08/16 01:21:49;;;;;;;6.30;5.62;;;;;;;25.42;50.62;101535.56;1689727;84;21055;-49
2021/08/16 01:24:17;;;;;;;6.25;5.37;;;;;;;25.50;50.81;101538.53;1689498;84;21605;-49
2021/08/16 01:26:44;;;;;;;7.92;5.53;;;;;;;25.50;50.81;101538.53;1688284;82;21042;-49
2021/08/16 01:29:20;;;;;;;8.65;4.95;;;;;;;25.76;50.49;101544.16;1688451;84;21239;-47
2021/08/16 01:31:46;;;;;;;6.83;5.58;;;;;;;25.76;50.49;101544.16;1690654;84;21024;-50
2021/08/16 01:34:12;;;;;;;8.58;5.47;;;;;;;25.76;50.40;101534.83;1681084;83;21079;-51
2021/08/16 01:36:44;;;;;;;7.80;5.78;;;;;;;25.84;50.56;101530.29;1690782;82;20993;-49
2021/08/16 01:39:10;;;;;;;;;;;;;;;25.84;50.56;101530.29;1696430;84;20997;-47
2021/08/16 01:41:37;;;;;;;7.60;5.85;;;;;;;25.89;50.19;101529.92;1688613;83;20231;-51
2021/08/16 01:44:04;;;;;;;5.85;5.25;;;;;;;25.89;50.19;101529.92;1683076;84;21077;-48
2021/08/16 01:46:31;;;;;;;8.50;6.10;;;;;;;25.91;50.60;101532.00;1686486;84;21159;-47
2021/08/16 01:48:59;;;;;;;8.23;5.62;;;;;;;25.94;50.79;101530.45;1690302;82;21127;-48
2021/08/16 01:51:25;;;;;;;8.20;5.90;;;;;;;25.94;50.98;101531.79;1706406;82;21054;-47
2021/08/16 01:53:53;;;;;;;8.93;6.45;;;;;;;25.98;51.25;101530.59;1725317;82;21164;-49
2021/08/16 01:56:20;;;;;;;5.70;5.10;;;;;;;25.99;51.53;101526.98;1726515;82;21567;-49
2021/08/16 01:58:47;;;;;;;7.10;5.83;;;;;;;26.02;51.92;101530.73;1723079;83;21046;-48
2021/08/16 02:01:14;;;;;;;5.87;5.28;;;;;;;26.02;52.24;101528.94;1725745;82;21105;-48
2021/08/16 02:03:41;;;;;;;10.18;5.50;;;;;;;26.04;52.47;101535.48;1729901;82;21569;-49
2021/08/16 02:06:07;;;;;;;6.85;5.47;;;;;;;26.07;52.96;101537.94;1721719;82;21042;-47
2021/08/16 02:08:34;;;;;;;8.33;5.60;;;;;;;26.07;52.96;101537.94;1722442;82;21051;-49
2021/08/16 02:11:03;;;;;;;13.80;6.45;;;;;;;26.08;53.20;101534.31;1724555;82;21002;-50
2021/08/16 02:13:31;;;;;;;6.80;5.90;;;;;;;26.10;53.43;101539.05;1721367;82;21118;-47
2021/08/16 02:15:58;;;;;;;8.20;6.42;;;;;;;26.11;53.59;101539.44;1726040;82;21569;-49
2021/08/16 02:18:24;;;;;;;6.47;5.65;;;;;;;26.14;53.95;101540.53;1725121;82;21081;-48
2021/08/16 02:20:51;;;;;;;7.37;6.05;;;;;;;26.15;54.15;101540.91;1726632;82;21564;-47
2021/08/16 02:23:18;;;;;;;7.20;6.03;;;;;;;26.16;54.02;101534.13;1726856;82;21421;-50
2021/08/16 02:25:45;;;;;;;6.90;5.53;;;;;;;26.17;54.26;101524.31;1728481;82;21028;-47
2021/08/16 02:28:16;;;;;;;11.80;6.58;;;;;;;26.18;54.34;101525.52;1716744;82;21052;-50
2021/08/16 02:30:43;;;;;;;8.80;6.62;;;;;;;26.23;54.31;101529.19;1714302;82;21026;-49
2021/08/16 02:33:13;;;;;;;7.12;5.53;;;;;;;26.27;54.38;101523.98;1727658;82;21023;-46
2021/08/16 02:35:41;;;;;;;9.53;5.90;;;;;;;26.30;54.47;101518.41;1724698;82;21066;-47
2021/08/16 02:38:09;;;;;;;8.05;6.42;;;;;;;26.32;54.45;101527.14;1723483;82;21011;-48
2021/08/16 02:40:35;;;;;;;6.37;5.78;;;;;;;26.35;54.50;101525.59;1723586;82;21022;-46
2021/08/16 02:43:02;;;;;;;12.90;6.97;;;;;;;26.35;54.50;101525.59;1723891;82;21046;-49
2021/08/16 02:45:30;;;;;;;7.90;6.15;;;;;;;26.38;54.37;101525.34;1728056;82;21058;-48
2021/08/16 02:47:57;;;;;;;11.73;6.22;;;;;;;26.39;54.26;101521.25;1726188;82;21078;-49
2021/08/16 02:50:24;;;;;;;11.40;6.10;;;;;;;26.42;54.14;101528.19;1728634;82;20986;-48
2021/08/16 02:55:20;;;;;;;9.20;6.12;;;;;;;26.44;54.18;101531.59;1666204;85;21510;-48
2021/08/16 02:57:47;;;;;;;6.80;6.10;;;;;;;26.44;54.18;101531.59;1666960;84;21038;-48
2021/08/16 03:00:17;;;;;;;8.48;6.25;;;;;;;26.44;54.44;101531.59;1664227;85;21082;-46
2021/08/16 03:02:43;;;;;;;8.55;6.12;;;;;;;26.42;54.13;101540.19;1663365;85;21073;-48
2021/08/16 03:05:12;;;;;;;11.45;6.28;;;;;;;26.45;54.14;101549.28;1666213;85;21506;-52
2021/08/16 03:07:40;;;;;;;6.87;5.83;;;;;;;26.46;54.32;101547.83;1666850;85;21490;-46
2021/08/16 03:10:10;;;;;;;8.15;6.25;;;;;;;26.47;54.43;101550.02;1666917;85;21038;-47
2021/08/16 03:12:37;;;;;;;7.92;6.17;;;;;;;26.44;54.11;101554.27;1645068;86;21106;-46
2021/08/16 03:15:07;;;;;;;6.55;5.72;;;;;;;26.44;54.11;101554.27;1656827;84;22417;-46
2021/08/16 03:17:35;;;;;;;14.00;7.12;;;;;;;26.45;53.59;101557.29;1603942;88;21557;-46
2021/08/16 03:20:06;;;;;;;11.18;6.50;;;;;;;26.43;53.28;101559.23;1592039;86;21096;-49
2021/08/16 03:22:34;;;;;;;13.50;7.28;;;;;;;26.41;53.11;101553.16;1648393;84;21129;-48
2021/08/16 03:25:01;;;;;;;11.18;6.40;;;;;;;26.36;52.86;101566.83;1647890;85;21014;-46
2021/08/16 03:27:28;;;;;;;13.13;6.53;;;;;;;26.38;52.82;101561.38;1650410;86;21593;-48
2021/08/16 03:29:54;;;;;;;8.48;6.58;;;;;;;26.38;52.82;101561.38;1647906;84;21006;-53
2021/08/16 03:32:21;;;;;;;12.80;6.50;;;;;;;26.36;52.86;101569.50;1647169;86;21566;-46
2021/08/16 03:34:48;;;;;;;9.75;6.28;;;;;;;26.33;52.89;101573.75;1644679;86;21074;-49
2021/08/16 03:37:15;;;;;;;9.95;6.12;;;;;;;26.33;52.89;101573.75;1654620;84;21613;-48
2021/08/16 03:39:42;;;;;;;8.73;6.85;;;;;;;26.33;52.92;101570.22;1651316;85;21038;-47
2021/08/16 03:42:09;;;;;;;9.38;6.37;;;;;;;26.32;52.92;101564.50;1666608;85;21010;-48
2021/08/16 03:44:36;;;;;;;9.95;6.58;;;;;;;26.32;53.03;101568.03;1664308;85;21024;-47
2021/08/16 03:47:03;;;;;;;14.65;6.83;;;;;;;26.31;53.16;101564.15;1647219;85;21002;-50
2021/08/16 03:49:30;;;;;;;10.30;6.15;;;;;;;26.34;53.21;101566.57;1662313;85;21068;-51
2021/08/16 03:51:56;;;;;;;13.58;7.50;;;;;;;26.35;53.52;101570.96;1645174;86;21096;-50
2021/08/16 03:54:23;;;;;;;8.43;6.62;;;;;;;26.35;53.81;101565.63;1644073;86;21565;-48
2021/08/16 03:56:51;;;;;;;8.35;6.35;;;;;;;26.39;53.94;101569.29;1644641;86;21042;-47
2021/08/16 03:59:18;;;;;;;13.55;6.83;;;;;;;26.40;53.92;101565.64;1621136;87;21567;-48
2021/08/16 04:01:44;;;;;;;9.45;7.08;;;;;;;26.42;53.81;101565.55;1640388;86;21230;-49
2021/08/16 04:04:11;;;;;;;8.03;6.35;;;;;;;26.42;53.71;101563.70;1640969;86;21064;-50
2021/08/16 04:06:39;;;;;;;13.45;6.80;;;;;;;26.46;53.66;101559.84;1643770;86;21590;-49
2021/08/16 04:09:06;;;;;;;9.83;7.47;;;;;;;26.50;53.66;101560.48;1644717;86;21564;-50
2021/08/16 04:11:33;;;;;;;10.43;6.37;;;;;;;26.54;53.59;101559.28;1618920;87;21065;-48
2021/08/16 04:14:00;;;;;;;24.47;7.53;;;;;;;26.60;53.51;101564.16;1641954;86;21049;-46
2021/08/16 04:16:27;;;;;;;174.30;18.00;;;;;;;26.63;53.60;101563.91;1668849;83;21058;-47
2021/08/16 04:18:53;;;;;;;41.58;9.33;;;;;;;26.67;53.66;101564.55;1664387;85;21050;-49
2021/08/16 04:21:20;;;;;;;12.63;7.05;;;;;;;26.71;53.71;101554.83;1663862;85;21051;-51
2021/08/16 04:23:46;;;;;;;14.15;6.47;;;;;;;26.76;53.83;101554.03;1665128;85;21586;-49
2021/08/16 04:26:13;;;;;;;6.83;5.75;;;;;;;26.79;54.08;101552.95;1665865;85;21528;-48
2021/08/16 04:28:40;;;;;;;10.63;6.33;;;;;;;26.82;54.18;101554.90;1666040;85;21025;-46
2021/08/16 04:31:07;;;;;;;11.18;6.25;;;;;;;26.86;54.22;101557.70;1664144;85;21073;-50
2021/08/16 04:33:33;;;;;;;12.35;6.50;;;;;;;26.92;54.19;101563.04;1663076;85;21005;-49
2021/08/16 04:36:00;;;;;;;7.37;6.15;;;;;;;26.95;54.10;101562.34;1663363;85;20981;-47
2021/08/16 04:38:26;;;;;;;6.90;5.65;;;;;;;26.99;53.83;101561.14;1663789;85;21068;-46
2021/08/16 04:40:53;;;;;;;11.63;5.80;;;;;;;27.04;53.55;101569.63;1663461;85;21020;-49
2021/08/16 04:43:21;;;;;;;7.00;5.55;;;;;;;27.07;53.30;101570.73;1660936;85;21087;-46
2021/08/16 04:45:48;;;;;;;9.13;6.87;;;;;;;27.11;53.07;101572.67;1665890;85;22142;-48
2021/08/16 04:48:15;;;;;;;8.28;5.85;;;;;;;27.13;52.95;101574.27;1662439;85;21067;-46
2021/08/16 04:50:42;;;;;;;10.58;6.95;;;;;;;27.15;52.62;101577.67;1665718;85;21055;-47
2021/08/16 04:53:09;;;;;;;9.78;6.10;;;;;;;27.18;52.70;101574.73;1666040;85;21041;-47
2021/08/16 04:55:36;;;;;;;7.30;6.10;;;;;;;27.20;52.73;101580.81;1650755;85;21116;-47
2021/08/16 04:58:03;;;;;;;9.78;5.78;;;;;;;27.24;52.69;101581.45;1665251;85;21508;-46
2021/08/16 05:00:30;;;;;;;7.67;5.85;;;;;;;27.24;52.62;101582.27;1666136;85;21029;-46
2021/08/16 05:02:58;;;;;;;13.58;6.95;;;;;;;27.26;52.64;101588.38;1665957;85;21131;-47
2021/08/16 05:05:29;;;;;;;9.50;6.00;;;;;;;27.29;52.87;101588.12;1664824;85;21088;-47
2021/08/16 05:07:58;;;;;;;9.33;6.55;;;;;;;27.33;52.45;101584.72;1663179;85;21044;-52
2021/08/16 05:10:29;;;;;;;13.22;6.03;;;;;;;27.34;52.49;101590.00;1664550;85;21056;-48
2021/08/16 05:12:58;;;;;;;9.43;6.28;;;;;;;27.36;52.37;101589.39;1666053;85;21020;-51
2021/08/16 05:15:25;;;;;;;11.68;6.40;;;;;;;27.37;52.33;101591.08;1663522;85;21051;-46
2021/08/16 05:17:53;;;;;;;13.18;7.47;;;;;;;27.40;52.53;101591.33;1663218;85;21064;-48
2021/08/16 05:20:22;;;;;;;11.43;6.12;;;;;;;27.43;52.75;101596.92;1664118;85;21667;-47
2021/08/16 05:22:49;;;;;;;8.25;6.35;;;;;;;27.48;52.34;101594.72;1665950;85;21013;-49
2021/08/16 05:25:17;;;;;;;8.68;6.22;;;;;;;27.52;52.12;101590.83;1666687;85;21036;-46
2021/08/16 05:27:45;;;;;;;7.92;6.45;;;;;;;27.55;52.01;101592.80;1663845;85;21036;-47
2021/08/16 05:30:13;;;;;;;6.50;5.90;;;;;;;27.59;52.12;101593.39;1664403;85;21079;-49
2021/08/16 05:32:39;;;;;;;12.43;9.68;;;;;;;27.63;51.93;101590.84;1665461;85;21240;-46
2021/08/16 05:35:08;;;;;;;11.30;8.93;;;;;;;27.67;51.91;101593.63;1666062;85;21076;-47
2021/08/16 05:37:34;;;;;;;9.48;6.35;;;;;;;27.72;51.84;101592.80;1665987;85;21036;-48
2021/08/16 05:40:02;;;;;;;9.70;6.78;;;;;;;27.76;51.69;101598.26;1664134;85;21087;-49
2021/08/16 05:42:29;;;;;;;8.65;6.65;;;;;;;27.81;51.62;101592.89;1664627;85;20993;-50
2021/08/16 05:44:55;;;;;;;7.33;6.30;;;;;;;27.84;51.54;101591.80;1663019;85;21473;-47
2021/08/16 05:47:22;;;;;;;13.15;5.90;;;;;;;27.88;51.18;101595.94;1660411;85;21036;-49
2021/08/16 05:49:49;;;;;;;10.58;6.80;;;;;;;27.93;51.02;101593.23;1664031;85;21524;-50
2021/08/16 05:52:16;;;;;;;7.65;6.28;;;;;;;27.99;50.56;101593.25;1664279;85;21032;-47
2021/08/16 05:54:43;;;;;;;7.00;6.30;;;;;;;28.03;50.44;101589.34;1660910;85;21520;-49
2021/08/16 05:57:10;;;;;;;10.13;9.08;;;;;;;28.09;50.33;101591.52;1668587;85;21052;-49
2021/08/16 05:59:37;;;;;;;12.25;7.55;;;;;;;28.14;49.95;101590.19;1661819;85;21014;-51
2021/08/16 06:02:04;;;;;;;11.38;6.58;;;;;;;28.21;49.73;101594.56;1669300;85;21498;-50
2021/08/16 06:04:31;;;;;;;8.63;7.30;;;;;;;28.30;49.65;101599.13;1674293;85;21064;-48
2021/08/16 06:06:58;;;;;;;9.65;6.78;;;;;;;28.40;49.38;101593.37;1668063;85;21076;-48
2021/08/16 06:09:26;;;;;;;13.00;7.33;;;;;;;28.51;49.11;101597.84;1661046;85;21571;-50
2021/08/16 06:11:53;;;;;;;7.80;6.20;;;;;;;28.61;48.73;101598.33;1654779;84;21080;-48
2021/08/16 06:14:20;;;;;;;9.60;6.87;;;;;;;28.71;48.46;101595.70;1662561;85;21027;-48
2021/08/16 06:16:48;;;;;;;76.35;15.05;;;;;;;28.78;48.18;101601.78;1668608;85;21039;-47
2021/08/16 06:19:17;;;;;;;14.03;8.28;;;;;;;28.79;48.42;101603.46;1662729;85;21056;-47
2021/08/16 06:21:44;;;;;;;10.08;6.97;;;;;;;28.80;48.47;101605.17;1667491;85;21069;-46
2021/08/16 06:24:11;;;;;;;9.73;6.78;;;;;;;28.81;48.39;101606.86;1664634;85;21143;-49
2021/08/16 06:26:39;;;;;;;10.38;8.10;;;;;;;28.82;48.41;101619.29;1662540;85;21528;-46
2021/08/16 06:29:06;;;;;;;12.75;7.70;;;;;;;28.85;48.36;101619.02;1665854;85;21021;-47
2021/08/16 06:31:34;;;;;;;11.65;9.15;;;;;;;28.88;48.16;101618.77;1653607;85;21032;-48
2021/08/16 06:34:01;;;;;;;12.13;8.05;;;;;;;28.89;48.49;101617.77;1662127;84;21040;-48
2021/08/16 06:36:29;;;;;;;8.78;7.37;;;;;;;28.91;48.51;101617.16;1659817;85;21507;-46
2021/08/16 06:38:56;;;;;;;8.05;6.70;;;;;;;28.90;48.31;101612.80;1668207;85;21071;-49
2021/08/16 06:41:23;;;;;;;8.23;6.92;;;;;;;28.92;48.05;101613.51;1661500;85;21564;-48
2021/08/16 06:43:51;;;;;;;15.83;7.72;;;;;;;28.96;47.87;101607.39;1667431;85;21091;-46
2021/08/16 06:46:18;;;;;;;11.22;6.35;;;;;;;28.98;47.89;101609.45;1664987;85;21021;-53
2021/08/16 06:48:45;;;;;;;8.13;7.17;;;;;;;29.03;47.99;101610.41;1651274;85;21025;-47
2021/08/16 06:51:12;;;;;;;11.15;7.42;;;;;;;29.07;47.27;101606.48;1664870;85;20997;-48
2021/08/16 06:53:38;;;;;;;44.25;9.45;;;;;;;29.09;46.58;101608.53;1666106;85;21146;-49
2021/08/16 06:56:05;;;;;;;8.18;6.87;;;;;;;29.10;46.89;101612.42;1662668;85;21068;-49
2021/08/16 06:58:33;;;;;;;7.40;6.70;;;;;;;29.11;46.49;101609.25;1665972;85;21600;-47
2021/08/16 07:01:02;;;;;;;10.45;7.10;;;;;;;29.13;45.93;101613.98;1666265;85;21048;-51
2021/08/16 07:03:29;;;;;;;7.87;7.08;;;;;;;29.16;46.28;101615.11;1663254;84;21036;-47
2021/08/16 07:05:56;;;;;;;9.38;7.22;;;;;;;29.19;46.19;101618.86;1660633;85;21571;-50
2021/08/16 07:08:23;;;;;;;9.58;6.47;;;;;;;29.20;46.18;101614.73;1669767;85;21050;-50
2021/08/16 07:10:51;;;;;;;19.20;7.55;;;;;;;29.24;46.51;101610.80;1664262;85;21540;-49
2021/08/16 07:13:19;;;;;;;10.68;7.12;;;;;;;29.27;46.34;101606.98;1666689;85;21052;-49
2021/08/16 07:15:46;;;;;;;10.28;6.60;;;;;;;29.29;45.93;101605.02;1668485;85;21009;-49
2021/08/16 07:18:13;;;;;;;9.65;6.70;;;;;;;29.33;45.86;101610.47;1663921;85;21068;-50
2021/08/16 07:20:41;;;;;;;17.05;7.85;;;;;;;29.37;45.67;101609.22;1663194;85;21516;-50
2021/08/16 07:23:07;;;;;;;10.85;6.78;;;;;;;29.42;44.94;101610.53;1662847;85;21021;-48
2021/08/16 07:25:35;;;;;;;8.58;7.00;;;;;;;29.48;45.31;101605.97;1663027;85;21080;-46
2021/08/16 07:28:02;;;;;;;11.03;7.33;;;;;;;29.55;46.28;101602.27;1663223;85;21021;-49
2021/08/16 07:30:28;;;;;;;10.85;8.20;;;;;;;29.62;46.13;101603.41;1664951;85;21509;-52
2021/08/16 07:32:55;;;;;;;8.83;6.45;;;;;;;29.70;45.68;101603.58;1666146;85;21076;-48
2021/08/16 07:35:22;;;;;;;8.18;6.97;;;;;;;29.77;45.16;101604.78;1668307;85;21591;-47
2021/08/16 07:37:48;;;;;;;8.08;7.05;;;;;;;29.86;45.61;101609.34;1670652;85;21521;-49
2021/08/16 07:40:15;;;;;;;8.38;6.90;;;;;;;29.92;45.46;101607.45;1670604;85;21048;-50
2021/08/16 07:42:42;;;;;;;20.08;17.40;;;;;;;29.97;45.20;101606.53;1671687;85;21493;-46
2021/08/16 07:45:10;;;;;;;14.20;11.57;;;;;;;30.04;44.86;101610.38;1667919;85;21058;-47
2021/08/16 07:47:36;;;;;;;17.62;8.58;;;;;;;30.11;44.79;101610.67;1663993;85;21107;-45
2021/08/16 07:50:12;;;;;;;16.70;14.95;;;;;;;30.14;46.11;101609.90;1665828;85;21548;-50
2021/08/16 07:52:41;;;;;;;12.58;11.33;;;;;;;30.19;45.77;101617.54;1664928;85;21100;-46
2021/08/16 07:55:08;;;;;;;26.60;23.85;;;;;;;30.22;46.26;101611.39;1603359;87;21094;-49
2021/08/16 07:57:36;;;;;;;47.33;42.55;;;;;;;30.26;46.27;101616.84;1601050;89;21163;-46
2021/08/16 08:00:08;;;;;;;30.52;27.37;;;;;;;30.28;44.68;101618.89;1597366;89;21066;-46
2021/08/16 08:02:50;;;;;;;21.35;16.82;;;;;;;30.33;44.82;101613.14;1566495;88;21590;-45
2021/08/16 08:05:19;;;;;;;;;;;;;;;30.37;44.49;101618.09;1625019;87;21531;-48
2021/08/16 08:07:46;;;;;;;13.03;9.25;;;;;;;30.40;44.42;101616.95;1622904;87;20164;-48
2021/08/16 08:10:16;;;;;;;11.65;8.18;;;;;;;30.41;44.02;101613.28;1619654;87;21110;-46
2021/08/16 08:12:45;;;;;;;11.25;8.33;;;;;;;30.42;43.16;101614.97;1620874;87;21062;-46
2021/08/16 08:15:12;;;;;;;9.35;7.33;;;;;;;30.45;42.19;101611.53;1620318;85;21589;-48
2021/08/16 08:17:39;;;;;;;9.18;7.45;;;;;;;30.50;40.83;101611.11;1621936;86;21153;-48
2021/08/16 08:20:08;;;;;;;9.90;7.50;;;;;;;30.56;40.68;101605.66;1611948;88;21110;-46
2021/08/16 08:22:35;;;;;;;10.82;7.50;;;;;;;30.62;40.73;101614.50;1619443;85;21034;-45
2021/08/16 08:25:02;;;;;;;10.03;8.55;;;;;;;30.66;41.36;101608.70;1637739;86;21064;-48
2021/08/16 08:27:29;;;;;;;13.78;8.43;;;;;;;30.73;41.92;101610.33;1613501;87;21124;-50
2021/08/16 08:29:56;;;;;;;9.48;7.30;;;;;;;30.77;41.83;101611.74;1627886;87;21021;-46
2021/08/16 08:32:23;;;;;;;12.93;7.90;;;;;;;30.79;40.75;101609.23;1613434;87;21139;-48
2021/08/16 08:34:50;;;;;;;10.23;7.65;;;;;;;30.83;41.24;101614.69;1635729;86;21129;-47
2021/08/16 08:37:17;;;;;;;11.50;8.35;;;;;;;30.87;41.27;101612.61;1628319;87;21049;-45
2021/08/16 08:39:45;;;;;;;11.55;8.38;;;;;;;30.92;41.92;101614.36;1644783;85;21055;-44
2021/08/16 08:42:13;;;;;;;11.70;7.40;;;;;;;30.94;41.58;101615.06;1672546;85;21111;-47
2021/08/16 08:44:40;;;;;;;11.65;7.67;;;;;;;30.96;41.38;101614.42;1653844;84;21057;-44
2021/08/16 08:47:07;;;;;;;17.62;11.97;;;;;;;30.98;41.97;101613.78;1664765;84;21154;-46
2021/08/16 08:49:35;;;;;;;17.60;11.15;;;;;;;31.01;41.94;101617.54;1655823;84;21037;-45
2021/08/16 08:52:04;;;;;;;13.10;8.85;;;;;;;31.01;41.89;101610.82;1697874;82;21038;-49
2021/08/16 08:54:35;;;;;;;11.12;7.70;;;;;;;31.04;42.11;101609.17;1730074;82;21668;-48
2021/08/16 08:57:01;;;;;;;16.12;8.80;;;;;;;31.07;42.03;101608.89;1731574;82;21066;-47
2021/08/16 08:59:28;;;;;;;13.75;8.08;;;;;;;31.09;41.98;101613.63;1731491;83;20991;-48
2021/08/16 09:01:58;;;;;;;8.58;7.37;;;;;;;31.10;42.24;101611.28;1733280;82;21105;-47
2021/08/16 09:04:25;;;;;;;13.43;8.43;;;;;;;31.10;42.45;101609.45;1734147;82;21472;-46
2021/08/16 09:06:52;;;;;;;11.20;8.10;;;;;;;31.12;42.70;101606.60;1725634;82;21061;-45
2021/08/16 09:09:20;;;;;;;14.58;7.60;;;;;;;31.13;43.23;101611.86;1727354;82;21545;-49
2021/08/16 09:11:50;;;;;;;10.48;7.35;;;;;;;31.16;42.92;101606.70;1718315;82;21101;-48
2021/08/16 09:14:18;;;;;;;13.70;8.10;;;;;;;31.17;43.18;101601.66;1693685;83;21051;-49
2021/08/16 09:16:47;;;;;;;11.63;7.17;;;;;;;31.19;42.78;101601.01;1694697;84;21071;-46
2021/08/16 09:19:23;;;;;;;16.97;7.08;;;;;;;31.20;42.82;101601.38;1686139;83;21168;-49
2021/08/16 09:24:30;;;;;;;11.10;7.40;;;;;;;31.21;42.85;101600.37;1697699;83;21056;-46
2021/08/16 09:27:06;;;;;;;7.72;6.90;;;;;;;31.21;42.75;101600.37;1692876;84;21105;-49
2021/08/16 09:29:33;;;;;;;10.40;7.15;;;;;;;31.24;41.84;101594.71;1676432;85;21049;-49
2021/08/16 09:32:05;;;;;;;14.35;7.15;;;;;;;31.27;40.89;101601.12;1674571;85;21105;-46
2021/08/16 09:34:37;;;;;;;6.92;6.25;;;;;;;31.27;41.19;101593.06;1680627;85;20973;-50
2021/08/16 09:37:17;;;;;;;9.90;6.70;;;;;;;31.31;40.90;101593.11;1646314;86;21001;-49
2021/08/16 09:39:44;;;;;;;7.78;6.62;;;;;;;31.35;41.44;101594.52;1582849;90;21591;-45
2021/08/16 09:42:13;;;;;;;7.62;6.28;;;;;;;31.38;41.58;101588.86;1581792;90;21157;-49
2021/08/16 09:44:48;;;;;;;9.15;7.08;;;;;;;31.40;41.82;101589.59;1572538;91;21151;-48
2021/08/16 09:47:15;;;;;;;7.40;6.53;;;;;;;31.45;41.41;101586.46;1581713;90;21059;-48
2021/08/16 09:49:43;;;;;;;8.90;6.80;;;;;;;31.48;40.91;101582.97;1571955;91;21067;-49
2021/08/16 09:52:12;;;;;;;9.23;6.78;;;;;;;31.51;40.95;101584.00;1570683;91;21108;-45
2021/08/16 09:54:41;;;;;;;;;;;;;;;31.56;40.95;101581.73;1575355;91;21096;-48
2021/08/16 09:57:08;;;;;;;10.65;6.47;;;;;;;31.60;41.17;101577.74;1572232;91;20448;-48
2021/08/16 09:59:35;;;;;;;10.55;6.95;;;;;;;31.63;41.20;101576.11;1572166;91;21610;-52
2021/08/16 10:02:03;;;;;;;9.85;6.80;;;;;;;31.68;40.93;101573.80;1572736;91;21083;-45
2021/08/16 10:04:31;;;;;;;8.63;7.10;;;;;;;31.73;40.58;101576.91;1572443;91;21067;-49
2021/08/16 10:06:59;;;;;;;7.50;6.62;;;;;;;31.76;40.54;101577.08;1570657;91;21121;-48
2021/08/16 10:09:26;;;;;;;11.53;6.97;;;;;;;31.80;40.86;101576.64;1572824;91;21654;-48
2021/08/16 10:11:55;;;;;;;9.25;6.87;;;;;;;31.83;40.81;101572.81;1571240;91;21039;-50
2021/08/16 10:14:29;;;;;;;9.55;8.43;;;;;;;31.86;40.72;101567.96;1577225;89;21057;-47
2021/08/16 10:16:57;;;;;;;10.23;8.53;;;;;;;31.90;40.40;101563.97;1583677;89;21537;-46
2021/08/16 10:19:32;;;;;;;7.92;6.85;;;;;;;31.96;40.54;101560.70;1590662;89;21025;-49
2021/08/16 10:22:00;;;;;;;8.65;7.30;;;;;;;32.01;40.31;101569.19;1592675;89;21489;-48
2021/08/16 10:24:29;;;;;;;8.98;7.47;;;;;;;32.06;40.39;101565.55;1576918;91;21055;-49
2021/08/16 10:27:03;;;;;;;10.95;7.78;;;;;;;32.11;40.43;101561.55;1604282;88;21518;-48
2021/08/16 10:29:32;;;;;;;12.18;10.98;;;;;;;32.17;39.86;101570.36;1626535;88;21058;-48
2021/08/16 10:32:01;;;;;;;9.78;8.18;;;;;;;32.22;39.84;101570.73;1630018;87;21495;-48
2021/08/16 10:34:34;;;;;;;9.20;7.15;;;;;;;32.25;39.73;101565.05;1620123;88;21094;-46
2021/08/16 10:37:11;;;;;;;8.80;6.42;;;;;;;32.31;39.82;101568.48;1615576;87;21051;-47
2021/08/16 10:39:45;;;;;;;7.75;6.90;;;;;;;32.36;39.94;101563.45;1625686;86;21083;-49
2021/08/16 10:42:18;;;;;;;8.30;6.15;;;;;;;32.43;39.99;101564.55;1664582;84;21695;-50
2021/08/16 10:44:50;;;;;;;17.92;6.72;;;;;;;32.45;39.45;101559.36;1708775;82;21170;-46
2021/08/16 10:47:30;;;;;;;23.27;6.95;;;;;;;32.49;39.12;101549.99;1716282;82;21022;-48
2021/08/16 10:50:12;;;;;;;9.95;6.05;;;;;;;32.54;38.12;101548.19;1718554;82;21078;-46
2021/08/16 10:52:43;;;;;;;6.85;5.47;;;;;;;32.58;37.44;101542.83;1722296;82;21054;-48
2021/08/16 10:55:17;;;;;;;8.00;6.25;;;;;;;32.62;37.20;101545.55;1722666;82;21034;-48
2021/08/16 10:57:45;;;;;;;7.35;5.35;;;;;;;32.62;37.73;101550.95;1640670;86;21144;-49
2021/08/16 11:00:13;;;;;;;7.45;6.65;;;;;;;32.63;37.39;101553.97;1630592;86;21066;-50
2021/08/16 11:02:42;;;;;;;13.13;9.48;;;;;;;32.61;37.37;101551.44;1637902;86;21623;-47
2021/08/16 11:05:12;;;;;;;10.00;6.53;;;;;;;32.64;37.44;101552.98;1620551;84;22496;-47
2021/08/16 11:07:40;;;;;;;7.75;6.30;;;;;;;32.64;37.09;101546.24;1564881;89;21108;-49
2021/08/16 11:10:10;;;;;;;7.35;5.85;;;;;;;32.61;37.37;101546.05;1549363;90;21084;-46
2021/08/16 11:12:42;;;;;;;7.57;6.50;;;;;;;32.59;37.21;101547.20;1551951;91;21173;-50
2021/08/16 11:15:17;;;;;;;6.60;5.90;;;;;;;32.57;37.37;101546.51;1572350;90;21603;-47
2021/08/16 11:17:44;;;;;;;7.25;6.45;;;;;;;32.54;37.14;101544.14;1567161;89;21066;-48
2021/08/16 11:20:15;;;;;;;6.83;6.08;;;;;;;32.51;37.38;101547.13;1571380;90;21066;-45
2021/08/16 11:22:52;;;;;;;8.88;6.08;;;;;;;32.49;37.42;101543.75;1564198;90;21115;-47
2021/08/16 11:25:19;;;;;;;8.65;6.30;;;;;;;32.46;37.21;101542.73;1491381;94;21101;-48
2021/08/16 11:27:46;;;;;;;12.15;6.53;;;;;;;32.45;36.92;101540.99;1468249;95;21637;-46
2021/08/16 11:30:13;;;;;;;6.85;5.72;;;;;;;32.47;37.00;101540.37;1490917;94;21102;-48